createdAt,value
2018-04-10T00:02:10.287Z,96730.52
2018-04-10T00:04:38.558Z,96729.97
2018-04-10T00:07:06.863Z,96731.02
2018-04-10T00:09:35.163Z,96732.47
2018-04-10T00:12:03.450Z,96727.61
2018-04-10T00:14:31.744Z,96732.58
2018-04-10T00:17:00.028Z,96736.88
2018-04-10T00:19:28.295Z,96741.71
2018-04-10T00:21:56.574Z,96740.25
2018-04-10T00:24:24.863Z,96739.73
2018-04-10T00:26:53.163Z,96744.63
2018-04-10T00:29:22.215Z,96744.32
2018-04-10T00:31:50.490Z,96743.73
2018-04-10T00:34:18.769Z,96739.21
2018-04-10T00:36:47.042Z,96737.81
2018-04-10T00:39:15.321Z,96730.31
2018-04-10T00:41:43.590Z,96732.61
2018-04-10T00:44:11.866Z,96735.80
2018-04-10T00:46:40.163Z,96736.88
2018-04-10T00:49:08.456Z,96736.73
2018-04-10T00:51:36.718Z,96735.87
2018-04-10T00:54:05.003Z,96732.17
2018-04-10T00:56:33.328Z,96736.75
2018-04-10T00:59:01.646Z,96725.89
2018-04-10T01:01:29.931Z,96728.67
2018-04-10T01:03:58.212Z,96728.73
2018-04-10T01:06:26.496Z,96732.00
2018-04-10T01:08:54.777Z,96729.64
2018-04-10T01:11:23.851Z,96724.44
2018-04-10T01:13:52.131Z,96732.05
2018-04-10T01:16:20.412Z,96730.10
2018-04-10T01:18:48.698Z,96735.00
2018-04-10T01:21:16.958Z,96732.67
2018-04-10T01:23:45.235Z,96735.48
2018-04-10T01:26:13.506Z,96737.19
2018-04-10T01:28:41.808Z,96747.41
2018-04-10T01:31:10.077Z,96740.88
2018-04-10T01:33:38.382Z,96742.89
2018-04-10T01:36:06.646Z,96742.61
2018-04-10T01:38:35.715Z,96744.10
2018-04-10T01:41:03.992Z,96744.03
2018-04-10T01:43:32.263Z,96746.05
2018-04-10T01:46:00.559Z,96746.54
2018-04-10T01:48:28.833Z,96752.27
2018-04-10T01:50:57.154Z,96745.77
2018-04-10T01:53:25.419Z,96753.14
2018-04-10T01:55:53.716Z,96751.77
2018-04-10T01:58:21.993Z,96752.89
2018-04-10T02:00:50.274Z,96753.66
2018-04-10T02:03:18.542Z,96752.25
2018-04-10T02:05:46.823Z,96758.98
2018-04-10T02:08:15.111Z,96753.84
2018-04-10T02:19:58.048Z,96746.20
2018-04-10T02:22:27.121Z,96750.06
2018-04-10T02:24:55.425Z,96746.91
2018-04-10T02:27:23.723Z,96747.91
2018-04-10T02:29:51.996Z,96752.62
2018-04-10T02:32:20.283Z,96762.77
2018-04-10T02:34:48.566Z,96764.11
2018-04-10T02:37:16.851Z,96764.42
2018-04-10T02:39:45.151Z,96764.19
2018-04-10T02:42:13.447Z,96760.78
2018-04-10T02:44:42.509Z,96757.92
2018-04-10T02:47:10.783Z,96761.44
2018-04-10T02:49:39.111Z,96761.50
2018-04-10T02:52:07.385Z,96763.56
2018-04-10T02:54:35.678Z,96762.19
2018-04-10T02:57:03.942Z,96761.14
2018-04-10T02:59:32.240Z,96757.09
2018-04-10T03:02:00.547Z,96759.59
2018-04-10T03:04:28.831Z,96758.03
2018-04-10T03:06:57.098Z,96754.48
2018-04-10T03:09:25.375Z,96750.28
2018-04-10T03:11:53.739Z,96749.05
2018-04-10T03:14:22.023Z,96756.54
2018-04-10T03:16:50.295Z,96752.92
2018-04-10T03:19:18.582Z,96753.45
2018-04-10T03:21:46.853Z,96762.26
2018-04-10T03:24:15.192Z,96757.72
2018-04-10T03:26:43.463Z,96761.22
2018-04-10T03:29:11.743Z,96764.21
2018-04-10T03:31:40.017Z,96773.52
2018-04-10T03:34:08.315Z,96779.63
2018-04-10T03:36:36.587Z,96777.89
2018-04-10T03:39:04.896Z,96776.69
2018-04-10T03:41:33.160Z,96780.59
2018-04-10T03:44:01.448Z,96788.53
2018-04-10T03:46:29.714Z,96783.34
2018-04-10T03:48:59.418Z,96779.66
2018-04-10T03:51:27.679Z,96780.77
2018-04-10T03:53:55.947Z,96782.03
2018-04-10T03:56:24.246Z,96784.69
2018-04-10T03:58:52.503Z,96788.64
2018-04-10T04:01:21.569Z,96790.03
2018-04-10T04:03:50.786Z,96789.51
2018-04-10T04:06:19.074Z,96784.87
2018-04-10T04:08:47.343Z,96784.59
2018-04-10T04:11:15.626Z,96783.27
2018-04-10T04:13:43.900Z,96780.92
2018-04-10T04:16:29.890Z,96790.01
2018-04-10T04:19:17.466Z,96787.31
2018-04-10T04:22:07.414Z,96788.16
2018-04-10T04:24:35.678Z,96792.86
2018-04-10T04:27:04.860Z,96796.80
2018-04-10T04:29:33.127Z,96797.86
2018-04-10T04:32:02.171Z,96796.36
2018-04-10T04:34:30.443Z,96804.12
2018-04-10T04:36:58.727Z,96804.41
2018-04-10T04:39:27.760Z,96808.47
2018-04-10T04:41:56.822Z,96807.14
2018-04-10T04:44:25.115Z,96816.59
2018-04-10T04:46:53.402Z,96811.50
2018-04-10T04:49:22.437Z,96803.47
2018-04-10T04:51:50.735Z,96804.04
2018-04-10T04:54:19.010Z,96805.09
2018-04-10T04:56:47.293Z,96800.00
2018-04-10T04:59:15.559Z,96802.33
2018-04-10T05:01:43.834Z,96804.12
2018-04-10T05:04:12.109Z,96809.89
2018-04-10T05:06:40.387Z,96807.75
2018-04-10T05:09:08.655Z,96804.70
2018-04-10T05:11:36.954Z,96806.98
2018-04-10T05:14:05.263Z,96803.93
2018-04-10T05:16:34.339Z,96808.42
2018-04-10T05:19:02.628Z,96811.69
2018-04-10T05:21:31.671Z,96809.89
2018-04-10T05:23:59.978Z,96809.63
2018-04-10T05:26:28.263Z,96809.16
2018-04-10T05:28:56.538Z,96814.70
2018-04-10T05:31:24.806Z,96816.51
2018-04-10T05:33:53.087Z,96813.75
2018-04-10T05:36:21.356Z,96813.80
2018-04-10T05:38:49.648Z,96818.30
2018-04-10T05:41:17.942Z,96816.56
2018-04-10T05:43:46.195Z,96813.21
2018-04-10T05:46:14.482Z,96812.00
2018-04-10T05:48:42.983Z,96812.95
2018-04-10T05:51:11.289Z,96817.32
2018-04-10T05:53:39.579Z,96809.45
2018-04-10T05:56:07.844Z,96809.77
2018-04-10T05:58:36.136Z,96803.53
2018-04-10T06:01:05.216Z,96808.91
2018-04-10T06:03:33.495Z,96804.45
2018-04-10T06:06:01.902Z,96810.40
2018-04-10T06:08:30.182Z,96813.83
2018-04-10T06:10:58.523Z,96814.84
2018-04-10T06:13:26.835Z,96808.36
2018-04-10T06:15:55.107Z,96813.63
2018-04-10T06:18:23.375Z,96810.31
2018-04-10T06:20:52.449Z,96812.34
2018-04-10T06:23:20.722Z,96819.52
2018-04-10T06:25:49.010Z,96817.17
2018-04-10T06:28:17.291Z,96820.72
2018-04-10T06:30:45.579Z,96821.72
2018-04-10T06:33:13.839Z,96819.59
2018-04-10T06:35:42.123Z,96820.98
2018-04-10T06:38:11.171Z,96827.07
2018-04-10T06:40:39.458Z,96823.65
2018-04-10T06:43:07.741Z,96819.29
2018-04-10T06:45:36.014Z,96807.70
2018-04-10T06:48:04.375Z,96814.95
2018-04-10T06:50:32.668Z,96820.33
2018-04-10T06:53:00.945Z,96824.56
2018-04-10T06:55:29.238Z,96820.69
2018-04-10T06:57:57.507Z,96825.23
2018-04-10T07:00:25.798Z,96821.69
2018-04-10T07:02:54.096Z,96825.72
2018-04-10T07:05:22.378Z,96827.80
2018-04-10T07:07:50.646Z,96827.25
2018-04-10T07:10:18.940Z,96832.98
2018-04-10T07:12:47.242Z,96830.13
2018-04-10T07:15:16.304Z,96829.75
2018-04-10T07:17:45.363Z,96835.00
2018-04-10T07:20:13.646Z,96830.63
2018-04-10T07:22:41.930Z,96822.30
2018-04-10T07:25:10.199Z,96826.27
2018-04-10T07:27:38.507Z,96829.47
2018-04-10T07:30:07.774Z,96825.71
2018-04-10T07:32:36.142Z,96823.53
2018-04-10T07:35:04.419Z,96816.12
2018-04-10T07:37:32.700Z,96808.97
2018-04-10T07:40:01.012Z,96807.72
2018-04-10T07:42:29.305Z,96805.02
2018-04-10T07:44:58.343Z,96794.76
2018-04-10T07:47:26.622Z,96800.39
2018-04-10T07:49:54.888Z,96798.59
2018-04-10T07:52:23.162Z,96797.75
2018-04-10T07:54:51.430Z,96797.55
2018-04-10T07:57:19.703Z,96795.44
2018-04-10T07:59:47.969Z,96797.20
2018-04-10T08:02:17.032Z,96790.13
2018-04-10T08:04:45.307Z,96788.70
2018-04-10T08:07:13.592Z,96793.45
2018-04-10T08:09:41.874Z,96790.84
2018-04-10T08:12:10.297Z,96789.05
2018-04-10T08:14:38.562Z,96794.91
2018-04-10T08:17:06.862Z,96789.30
2018-04-10T08:19:35.134Z,96781.44
2018-04-10T08:22:03.419Z,96782.75
2018-04-10T08:24:31.683Z,96779.53
2018-04-10T08:27:00.003Z,96772.48
2018-04-10T08:29:28.306Z,96775.84
2018-04-10T08:31:57.350Z,96772.38
2018-04-10T08:34:25.631Z,96768.95
2018-04-10T08:36:53.898Z,96773.73
2018-04-10T08:39:22.248Z,96768.71
2018-04-10T08:41:50.527Z,96766.88
2018-04-10T08:44:18.824Z,96773.53
2018-04-10T08:46:47.086Z,96770.14
2018-04-10T08:49:15.590Z,96770.92
2018-04-10T08:51:43.867Z,96763.16
2018-04-10T08:54:12.142Z,96757.62
2018-04-10T08:56:40.423Z,96753.73
2018-04-10T08:59:08.732Z,96754.92
2018-04-10T09:01:37.001Z,96755.19
2018-04-10T09:04:05.290Z,96753.52
2018-04-10T09:06:34.326Z,96757.75
2018-04-10T09:09:02.621Z,96755.69
2018-04-10T09:11:30.902Z,96754.38
2018-04-10T09:13:59.975Z,96752.43
2018-04-10T09:16:28.235Z,96748.14
2018-04-10T09:18:56.521Z,96752.48
2018-04-10T09:21:24.794Z,96752.41
2018-04-10T09:23:53.076Z,96748.40
2018-04-10T09:26:21.380Z,96752.78
2018-04-10T09:28:49.717Z,96743.80
2018-04-10T09:31:18.107Z,96747.16
2018-04-10T09:33:46.390Z,96745.52
2018-04-10T09:36:14.659Z,96745.55
2018-04-10T09:38:42.928Z,96747.52
2018-04-10T09:41:11.219Z,96741.72
2018-04-10T09:43:39.509Z,96746.57
2018-04-10T09:46:07.785Z,96739.57
2018-04-10T09:48:36.050Z,96742.27
2018-04-10T09:51:04.382Z,96733.86
2018-04-10T09:53:33.412Z,96736.03
2018-04-10T09:56:01.688Z,96736.97
2018-04-10T09:58:30.014Z,96734.47
2018-04-10T10:00:58.291Z,96733.17
2018-04-10T10:03:26.554Z,96732.07
2018-04-10T10:05:54.855Z,96732.52
2018-04-10T10:08:23.893Z,96730.17
2018-04-10T10:10:52.182Z,96736.59
2018-04-10T10:13:20.443Z,96732.98
2018-04-10T10:15:48.740Z,96730.72
2018-04-10T10:18:17.002Z,96728.02
2018-04-10T10:20:45.291Z,96728.47
2018-04-10T10:23:13.550Z,96731.24
2018-04-10T10:25:41.993Z,96734.98
2018-04-10T10:28:11.023Z,96731.48
2018-04-10T10:30:39.297Z,96733.99
2018-04-10T10:33:07.573Z,96734.58
2018-04-10T10:35:35.835Z,96744.66
2018-04-10T10:38:04.124Z,96738.77
2018-04-10T10:40:32.394Z,96742.88
2018-04-10T10:43:00.685Z,96736.43
2018-04-10T10:45:29.018Z,96741.91
2018-04-10T10:47:58.069Z,96741.81
2018-04-10T10:50:26.344Z,96736.14
2018-04-10T10:52:54.631Z,96740.20
2018-04-10T10:55:22.905Z,96738.36
2018-04-10T10:57:51.193Z,96738.73
2018-04-10T11:00:19.498Z,96733.25
2018-04-10T11:02:48.538Z,96729.00
2018-04-10T11:05:16.873Z,96728.08
2018-04-10T11:07:45.314Z,96726.72
2018-04-10T11:10:13.712Z,96723.83
2018-04-10T11:12:42.861Z,96731.38
2018-04-10T11:15:11.198Z,96726.55
2018-04-10T11:17:39.545Z,96715.48
2018-04-10T11:20:07.949Z,96718.03
2018-04-10T11:22:36.286Z,96715.71
2018-04-10T11:25:04.568Z,96713.19
2018-04-10T11:27:32.844Z,96718.73
2018-04-10T11:30:01.179Z,96712.41
2018-04-10T11:32:29.444Z,96724.37
2018-04-10T11:34:58.527Z,96722.56
2018-04-10T11:37:26.814Z,96716.02
2018-04-10T11:39:55.854Z,96715.39
2018-04-10T11:42:24.121Z,96722.73
2018-04-10T11:44:52.472Z,96719.48
2018-04-10T11:47:21.508Z,96710.52
2018-04-10T11:49:49.794Z,96707.99
2018-04-10T11:52:18.066Z,96706.47
2018-04-10T11:54:46.343Z,96699.48
2018-04-10T11:57:14.605Z,96691.56
2018-04-10T11:59:42.899Z,96691.98
2018-04-10T12:02:11.172Z,96690.69
2018-04-10T12:04:39.462Z,96697.59
2018-04-10T12:07:07.720Z,96687.36
2018-04-10T12:09:36.014Z,96693.23
2018-04-10T12:12:04.275Z,96693.03
2018-04-10T12:14:32.563Z,96686.72
2018-04-10T12:17:00.846Z,96686.25
2018-04-10T12:19:29.146Z,96688.47
2018-04-10T12:21:58.185Z,96683.28
2018-04-10T12:24:26.464Z,96682.56
2018-04-10T12:26:54.734Z,96683.06
2018-04-10T12:29:23.032Z,96672.14
2018-04-10T12:31:51.329Z,96679.13
2018-04-10T12:34:19.622Z,96676.07
2018-04-10T12:36:48.660Z,96669.28
2018-04-10T12:39:16.975Z,96662.11
2018-04-10T12:41:45.270Z,96660.00
2018-04-10T12:44:14.322Z,96657.20
2018-04-10T12:46:42.638Z,96654.57
2018-04-10T12:49:11.698Z,96653.03
2018-04-10T12:51:40.051Z,96656.81
2018-04-10T12:54:08.353Z,96657.31
2018-04-10T12:56:36.641Z,96653.06
2018-04-10T12:59:05.676Z,96653.09
2018-04-10T13:01:34.724Z,96649.91
2018-04-10T13:04:02.992Z,96641.43
2018-04-10T13:06:31.276Z,96639.45
2018-04-10T13:08:59.583Z,96642.16
2018-04-10T13:11:28.647Z,96645.70
2018-04-10T13:13:56.983Z,96646.28
2018-04-10T13:16:25.278Z,96637.70
2018-04-10T13:18:53.543Z,96634.31
2018-04-10T13:21:21.829Z,96636.01
2018-04-10T13:23:50.110Z,96637.20
2018-04-10T13:26:18.463Z,96636.61
2018-04-10T13:28:46.720Z,96635.52
2018-04-10T13:31:15.779Z,96640.54
2018-04-10T13:33:44.051Z,96631.45
2018-04-10T13:36:12.348Z,96622.75
2018-04-10T13:38:40.610Z,96630.26
2018-04-10T13:41:08.899Z,96634.34
2018-04-10T13:43:37.162Z,96636.19
2018-04-10T13:46:05.472Z,96634.30
2018-04-10T13:48:34.507Z,96632.16
2018-04-10T13:51:02.788Z,96631.39
2018-04-10T13:53:31.073Z,96626.02
2018-04-10T13:55:59.487Z,96625.34
2018-04-10T13:58:27.783Z,96613.26
2018-04-10T14:00:56.079Z,96617.77
2018-04-10T14:03:24.348Z,96619.81
2018-04-10T14:05:52.629Z,96619.10
2018-04-10T14:08:20.924Z,96615.64
2018-04-10T14:10:49.216Z,96603.70
2018-04-10T14:13:17.511Z,96611.16
2018-04-10T14:15:45.785Z,96600.69
2018-04-10T14:18:14.075Z,96603.80
2018-04-10T14:20:42.365Z,96597.38
2018-04-10T14:23:11.415Z,96599.29
2018-04-10T14:25:39.700Z,96597.24
2018-04-10T14:28:08.045Z,96594.27
2018-04-10T14:30:36.334Z,96589.09
2018-04-10T14:33:04.618Z,96589.26
2018-04-10T14:35:33.023Z,96593.24
2018-04-10T14:38:01.455Z,96593.73
2018-04-10T14:40:29.737Z,96593.21
2018-04-10T14:42:58.024Z,96591.23
2018-04-10T14:45:26.304Z,96589.55
2018-04-10T14:47:54.599Z,96585.95
2018-04-10T14:50:22.883Z,96582.98
2018-04-10T14:52:51.146Z,96578.55
2018-04-10T14:55:19.434Z,96571.34
2018-04-10T14:57:47.703Z,96575.90
2018-04-10T15:00:16.027Z,96569.89
2018-04-10T15:02:44.317Z,96568.00
2018-04-10T15:05:12.604Z,96568.91
2018-04-10T15:07:40.883Z,96574.75
2018-04-10T15:10:09.210Z,96570.55
2018-04-10T15:12:38.247Z,96567.59
2018-04-10T15:15:06.535Z,96565.67
2018-04-10T15:17:34.810Z,96565.19
2018-04-10T15:20:03.098Z,96570.38
2018-04-10T15:22:32.147Z,96574.59
2018-04-10T15:25:00.441Z,96572.55
2018-04-10T15:27:28.720Z,96572.11
2018-04-10T15:29:57.011Z,96569.00
2018-04-10T15:32:25.286Z,96571.04
2018-04-10T15:34:53.576Z,96562.98
2018-04-10T15:37:21.850Z,96567.27
2018-04-10T15:39:50.147Z,96558.66
2018-04-10T15:42:18.439Z,96559.23
2018-04-10T15:44:47.495Z,96552.72
2018-04-10T15:47:15.771Z,96552.03
2018-04-10T15:49:44.058Z,96548.05
2018-04-10T15:52:12.329Z,96553.70
2018-04-10T15:54:40.624Z,96553.24
2018-04-10T15:57:08.918Z,96555.68
2018-04-10T15:59:37.958Z,96554.73
2018-04-10T16:02:06.255Z,96550.77
2018-04-10T16:04:34.530Z,96551.33
2018-04-10T16:07:02.827Z,96543.56
2018-04-10T16:09:31.094Z,96542.89
2018-04-10T16:11:59.387Z,96541.01
2018-04-10T16:14:28.415Z,96543.58
2018-04-10T16:16:56.705Z,96546.22
2018-04-10T16:19:24.980Z,96549.89
2018-04-10T16:21:53.320Z,96543.74
2018-04-10T16:24:22.354Z,96543.52
2018-04-10T16:26:50.638Z,96536.15
2018-04-10T16:29:18.906Z,96539.40
2018-04-10T16:31:47.194Z,96525.20
2018-04-10T16:34:15.466Z,96525.66
2018-04-10T16:36:44.522Z,96521.46
2018-04-10T16:39:13.552Z,96525.97
2018-04-10T16:41:41.851Z,96523.43
2018-04-10T16:44:10.928Z,96528.78
2018-04-10T16:46:39.232Z,96534.81
2018-04-10T16:49:07.510Z,96538.30
2018-04-10T16:51:35.823Z,96535.05
2018-04-10T16:54:04.101Z,96537.82
2018-04-10T16:56:32.391Z,96541.69
2018-04-10T16:59:00.690Z,96550.97
2018-04-10T17:01:28.976Z,96550.88
2018-04-10T17:03:57.273Z,96562.74
2018-04-10T17:06:25.548Z,96568.45
2018-04-10T17:08:53.832Z,96561.73
2018-04-10T17:11:22.108Z,96572.78
2018-04-10T17:13:50.395Z,96570.58
2018-04-10T17:16:19.448Z,96574.92
2018-04-10T17:18:47.819Z,96582.77
2018-04-10T17:21:16.099Z,96577.19
2018-04-10T17:23:45.231Z,96593.16
2018-04-10T17:26:14.501Z,96594.94
2018-04-10T17:28:43.100Z,96601.69
2018-04-10T17:31:12.463Z,96598.00
2018-04-10T17:33:41.745Z,96605.03
2018-04-10T17:36:10.934Z,96606.31
2018-04-10T17:38:40.388Z,96612.34
2018-04-10T17:41:09.693Z,96617.66
2018-04-10T17:43:39.118Z,96621.92
2018-04-10T17:46:08.464Z,96631.38
2018-04-10T17:48:38.513Z,96631.55
2018-04-10T17:51:07.834Z,96639.28
2018-04-10T17:53:37.668Z,96640.85
2018-04-10T17:56:06.940Z,96639.78
2018-04-10T17:58:36.341Z,96653.97
2018-04-10T18:01:05.642Z,96661.89
2018-04-10T18:03:35.088Z,96669.57
2018-04-10T18:06:05.130Z,96678.55
2018-04-10T18:08:34.488Z,96688.39
2018-04-10T18:11:03.825Z,96692.60
2018-04-10T18:13:33.317Z,96714.16
2018-04-10T18:16:03.525Z,96716.32
2018-04-10T18:18:32.937Z,96706.53
2018-04-10T18:21:03.193Z,96713.61
2018-04-10T18:23:32.549Z,96701.80
2018-04-10T18:26:02.762Z,96703.19
2018-04-10T18:28:32.876Z,96709.63
2018-04-10T18:31:02.299Z,96716.55
2018-04-10T18:33:31.605Z,96716.16
2018-04-10T18:36:01.934Z,96721.91
2018-04-10T18:38:32.072Z,96724.64
2018-04-10T18:41:01.597Z,96734.85
2018-04-10T18:43:30.909Z,96734.72
2018-04-10T18:46:01.358Z,96744.45
2018-04-10T18:48:30.700Z,96753.95
2018-04-10T18:51:00.125Z,96757.83
2018-04-10T18:53:29.645Z,96759.39
2018-04-10T18:55:59.244Z,96765.14
2018-04-10T18:58:28.727Z,96771.06
2018-04-10T19:00:58.315Z,96785.70
2018-04-10T19:03:27.634Z,96797.73
2018-04-10T19:05:57.133Z,96805.08
2018-04-10T19:08:26.986Z,96800.98
2018-04-10T19:10:56.440Z,96802.95
2018-04-10T19:13:26.770Z,96793.33
2018-04-10T19:15:58.302Z,96797.52
2018-04-10T19:18:28.462Z,96801.17
2018-04-10T19:20:57.927Z,96802.58
2018-04-10T19:23:27.282Z,96799.78
2018-04-10T19:25:56.725Z,96795.83
2018-04-10T19:28:26.158Z,96807.23
2018-04-10T19:30:55.955Z,96802.89
2018-04-10T19:33:26.042Z,96807.15
2018-04-10T19:35:55.457Z,96806.47
2018-04-10T19:38:24.879Z,96805.90
2018-04-10T19:40:55.258Z,96805.55
2018-04-10T19:43:24.645Z,96795.28
2018-04-10T19:45:53.989Z,96806.70
2018-04-10T19:48:23.405Z,96807.37
2018-04-10T19:50:52.809Z,96815.05
2018-04-10T19:53:22.997Z,96819.17
2018-04-10T19:55:52.254Z,96809.06
2018-04-10T19:58:23.177Z,96815.84
2018-04-10T20:00:53.278Z,96818.07
2018-04-10T20:03:23.503Z,96821.73
2018-04-10T20:05:53.924Z,96819.00
2018-04-10T20:08:23.962Z,96818.13
2018-04-10T20:10:53.326Z,96812.75
2018-04-10T20:13:22.775Z,96814.33
2018-04-10T20:15:52.200Z,96807.41
2018-04-10T20:18:21.821Z,96811.82
2018-04-10T20:20:51.484Z,96805.52
2018-04-10T20:23:22.159Z,96799.67
2018-04-10T20:25:51.553Z,96796.30
2018-04-10T20:28:20.947Z,96799.40
2018-04-10T20:30:50.434Z,96800.79
2018-04-10T20:33:19.904Z,96797.55
2018-04-10T20:35:49.183Z,96802.77
2018-04-10T20:38:18.800Z,96799.78
2018-04-10T20:40:48.272Z,96800.19
2018-04-10T20:43:17.754Z,96795.11
2018-04-10T20:45:47.087Z,96801.92
2018-04-10T20:48:16.658Z,96797.95
2018-04-10T20:50:46.784Z,96797.06
2018-04-10T20:53:16.965Z,96803.47
2018-04-10T20:55:46.277Z,96804.03
2018-04-10T20:58:15.709Z,96811.00
2018-04-10T21:00:45.136Z,96803.35
2018-04-10T21:03:14.501Z,96808.80
2018-04-10T21:05:44.635Z,96810.50
2018-04-10T21:08:13.924Z,96807.35
2018-04-10T21:10:44.013Z,96811.48
2018-04-10T21:13:13.205Z,96817.31
2018-04-10T21:15:42.565Z,96819.80
2018-04-10T21:18:11.706Z,96824.33
2018-04-10T21:20:40.259Z,96828.63
2018-04-10T21:23:09.602Z,96842.44
2018-04-10T21:25:38.330Z,96843.36
2018-04-10T21:28:07.470Z,96843.88
2018-04-10T21:30:36.532Z,96845.22
2018-04-10T21:33:04.813Z,96844.89
2018-04-10T21:35:33.180Z,96840.69
2018-04-10T21:38:01.462Z,96846.20
2018-04-10T21:40:29.750Z,96843.06
2018-04-10T21:43:03.625Z,96847.50
2018-04-10T21:45:31.919Z,96841.00
2018-04-10T21:48:00.182Z,96842.42
2018-04-10T21:50:28.475Z,96840.03
2018-04-10T21:52:56.747Z,96847.33
2018-04-10T21:55:30.542Z,96847.45
2018-04-10T22:01:07.503Z,96855.41
2018-04-10T22:03:42.442Z,96854.13
2018-04-10T22:06:11.491Z,96849.22
2018-04-10T22:08:39.771Z,96842.67
2018-04-10T22:11:08.070Z,96851.33
2018-04-10T22:13:36.334Z,96852.19
2018-04-10T22:16:04.611Z,96847.51
2018-04-10T22:18:33.026Z,96841.43
2018-04-10T22:21:02.248Z,96845.67
2018-04-10T22:23:30.534Z,96846.16
2018-04-10T22:25:58.813Z,96845.69
2018-04-10T22:28:27.078Z,96855.27
2018-04-10T22:30:55.364Z,96852.00
2018-04-10T22:33:23.668Z,96855.41
2018-04-10T22:35:51.899Z,96846.88
2018-04-10T22:38:20.191Z,96848.41
2018-04-10T22:40:48.503Z,96857.47
2018-04-10T22:43:17.567Z,96864.22
2018-04-10T22:45:48.648Z,96862.06
2018-04-10T22:48:16.952Z,96867.86
2018-04-10T22:50:45.288Z,96874.31
2018-04-10T22:53:13.578Z,96879.12
2018-04-10T22:55:41.863Z,96885.69
2018-04-10T22:58:10.201Z,96889.75
2018-04-10T23:00:50.030Z,96889.93
2018-04-10T23:03:18.306Z,96885.89
2018-04-10T23:05:46.580Z,96884.00
2018-04-10T23:08:14.875Z,96888.70
2018-04-10T23:10:43.213Z,96891.00
2018-04-10T23:13:11.515Z,96892.29
2018-04-10T23:15:39.815Z,96897.24
2018-04-10T23:18:08.100Z,96899.74
2018-04-10T23:20:36.371Z,96905.67
2018-04-10T23:23:04.663Z,96905.29
2018-04-10T23:25:33.051Z,96904.73
2018-04-10T23:28:02.254Z,96901.50
2018-04-10T23:30:31.312Z,96894.54
2018-04-10T23:32:59.604Z,96906.47
2018-04-10T23:35:28.658Z,96908.77
2018-04-10T23:37:56.943Z,96913.50
2018-04-10T23:40:25.224Z,96905.78
2018-04-10T23:42:53.515Z,96900.42
2018-04-10T23:45:21.793Z,96899.52
2018-04-10T23:47:50.067Z,96902.68
2018-04-10T23:50:18.353Z,96905.50
2018-04-10T23:52:46.661Z,96918.53
2018-04-10T23:55:15.708Z,96923.36
2018-04-10T23:57:43.974Z,96919.47
